Terminal Aerodrome Forecast
Issued by NWS

Home | Current Version | Previous Version | Text Only | Print | Product List | Glossary On
Versions: 1 2 3 4 5 6 7 8 9 10 11 12 13 14 15 16
000
FTUS42 KILM 271720
TAFCRE
TAF
KCRE 271720Z 2718/2818 17010G16KT P6SM SCT040 BKN250
     FM280200 VRB03KT P6SM SKC
      TEMPO 2808/2811 4SM BR
     FM281200 19008KT P6SM FEW025 SCT250=

USA.gov is the U.S. government's official web portal to all federal, state and local government web resources and services.